Nimitz, West Virginia
Current Conditions -  °F | °C
As of 4:51 PM on Thursday 23 Oct 2014 (Local Time) from KBKW Reporting Station
Overcast Overcast  
Wind Chill: 44°   Ceiling: 2100
Heat Index: 48°   Visibility: 10mi
Dew Point: 40°   Wind: 8mph
Humidity: 74%   Direction: 300°WNW
Pressure: 30.1"   Gusts: NA
Location:  37.65°N, 80.96°W
Report Text: KBKW 232051Z AUTO 30007KT 10SM OVC021 09/04 A3010 RMK AO2 SLP200 T00890044 56009 TSNO
Loading
Personal Weather Stations






























Interactive Weather Map
Tropical Storm Tracking
New forecast layout! Learn more

10-Day Weather Forecast

Advertisements
Track Severe Weather on mobile